createdAt,value
2023-02-22T00:01:35.300Z,48.10
2023-02-22T00:04:03.700Z,48.10
2023-02-22T00:06:31.060Z,45.80
2023-02-22T00:08:58.336Z,40.80
2023-02-22T00:11:25.401Z,44.80
2023-02-22T00:13:52.240Z,43.97
2023-02-22T00:16:21.176Z,45.90
2023-02-22T00:18:48.433Z,48.20
2023-02-22T00:21:16.536Z,45.93
2023-02-22T00:23:49.100Z,50.40
2023-02-22T00:26:20.932Z,42.73
2023-02-22T00:28:49.014Z,43.93
2023-02-22T00:31:16.008Z,47.30
2023-02-22T00:33:43.148Z,49.40
2023-02-22T00:36:11.386Z,41.43
2023-02-22T00:38:37.890Z,43.60
2023-02-22T00:41:04.876Z,45.60
2023-02-22T00:43:31.273Z,47.90
2023-02-22T00:45:57.924Z,45.93
2023-02-22T00:48:24.445Z,47.93
2023-02-22T00:50:55.224Z,44.90
2023-02-22T00:53:23.597Z,42.83
2023-02-22T00:55:50.535Z,46.70
2023-02-22T00:58:17.079Z,45.37
2023-02-22T01:00:43.841Z,47.13
2023-02-22T01:03:13.352Z,46.60
2023-02-22T01:05:39.943Z,47.20
2023-02-22T01:08:08.375Z,45.97
2023-02-22T01:10:35.480Z,47.67
2023-02-22T01:13:04.846Z,41.07
2023-02-22T01:15:31.255Z,41.53
2023-02-22T01:17:58.525Z,40.50
2023-02-22T01:20:26.175Z,42.70
2023-02-22T01:22:54.436Z,38.93
2023-02-22T01:25:24.372Z,41.20
2023-02-22T01:27:51.490Z,43.43
2023-02-22T01:30:24.737Z,42.67
2023-02-22T01:32:51.619Z,37.43
2023-02-22T01:35:21.504Z,39.70
2023-02-22T01:37:47.887Z,39.83
2023-02-22T01:40:20.462Z,40.73
2023-02-22T01:42:57.651Z,38.37
2023-02-22T01:45:30.212Z,39.53
2023-02-22T01:47:58.788Z,36.67
2023-02-22T01:50:25.197Z,38.70
2023-02-22T01:52:51.688Z,35.97
2023-02-22T01:55:18.352Z,39.60
2023-02-22T01:57:44.842Z,40.70
2023-02-22T02:00:16.893Z,43.97
2023-02-22T02:02:46.592Z,37.77
2023-02-22T02:05:13.616Z,41.07
2023-02-22T02:07:40.813Z,40.13
2023-02-22T02:10:14.484Z,39.87
2023-02-22T02:12:46.619Z,38.27
2023-02-22T02:15:16.772Z,42.27
2023-02-22T02:17:43.583Z,38.73
2023-02-22T02:20:24.962Z,39.33
2023-02-22T02:23:29.004Z,38.30
2023-02-22T02:26:27.506Z,34.97
2023-02-22T02:29:30.958Z,32.47
2023-02-22T02:32:40.507Z,39.87
2023-02-22T02:35:07.053Z,40.10
2023-02-22T02:37:44.567Z,38.57
2023-02-22T02:40:58.566Z,39.63
2023-02-22T02:43:36.961Z,36.73
2023-02-22T02:46:11.623Z,37.83
2023-02-22T02:48:42.265Z,36.37
2023-02-22T02:51:09.595Z,37.43
2023-02-22T02:53:39.066Z,35.43
2023-02-22T02:56:06.085Z,42.53
2023-02-22T02:58:32.650Z,41.00
2023-02-22T03:01:01.424Z,37.63
2023-02-22T03:03:49.953Z,40.33
2023-02-22T03:06:35.815Z,37.63
2023-02-22T03:09:24.051Z,38.83
2023-02-22T03:12:09.221Z,42.07
2023-02-22T03:14:42.789Z,40.97
2023-02-22T03:17:23.684Z,40.30
2023-02-22T03:19:53.658Z,40.40
2023-02-22T03:22:27.225Z,39.77
2023-02-22T03:25:02.175Z,41.23
2023-02-22T03:27:44.632Z,42.40
2023-02-22T03:30:24.106Z,38.73
2023-02-22T03:32:53.243Z,41.70
2023-02-22T03:35:23.394Z,39.13
2023-02-22T03:37:54.489Z,38.50
2023-02-22T03:40:36.073Z,44.73
2023-02-22T03:43:07.691Z,42.93
2023-02-22T03:45:34.624Z,42.40
2023-02-22T03:48:06.515Z,47.83
2023-02-22T03:50:36.070Z,46.40
2023-02-22T03:53:02.902Z,45.33
2023-02-22T03:55:31.366Z,45.53
2023-02-22T03:57:59.328Z,46.90
2023-02-22T04:00:28.220Z,48.80
2023-02-22T04:02:54.906Z,52.43
2023-02-22T04:05:21.971Z,48.83
2023-02-22T04:07:48.374Z,49.63
2023-02-22T04:10:16.294Z,48.57
2023-02-22T04:12:42.667Z,49.43
2023-02-22T04:15:11.585Z,54.93
2023-02-22T04:17:38.011Z,53.40
2023-02-22T04:20:06.183Z,58.17
2023-02-22T04:22:32.732Z,56.53
2023-02-22T04:24:59.145Z,57.80
2023-02-22T04:27:25.783Z,49.67
2023-02-22T04:29:52.265Z,47.00
2023-02-22T04:32:18.662Z,54.23
2023-02-22T04:34:45.131Z,59.83
2023-02-22T04:37:12.281Z,53.83
2023-02-22T04:39:38.799Z,56.73
2023-02-22T04:42:05.459Z,62.13
2023-02-22T04:44:32.160Z,55.37
2023-02-22T04:46:58.629Z,58.17
2023-02-22T04:49:25.041Z,60.57
2023-02-22T04:51:51.419Z,55.30
2023-02-22T04:54:18.387Z,55.17
2023-02-22T04:56:45.314Z,47.33
2023-02-22T04:59:11.771Z,57.53
2023-02-22T05:01:38.674Z,50.93
2023-02-22T05:04:06.395Z,51.27
2023-02-22T05:06:33.030Z,48.47
2023-02-22T05:08:59.502Z,51.97
2023-02-22T05:11:25.937Z,54.63
2023-02-22T05:13:53.329Z,47.63
2023-02-22T05:16:19.781Z,48.10
2023-02-22T05:18:46.217Z,57.20
2023-02-22T05:21:13.572Z,52.47
2023-02-22T05:23:40.143Z,46.67
2023-02-22T05:26:06.601Z,48.90
2023-02-22T05:28:33.250Z,52.83
2023-02-22T05:30:59.692Z,48.47
2023-02-22T05:33:26.137Z,48.17
2023-02-22T05:35:52.614Z,46.47
2023-02-22T05:38:19.000Z,53.77
2023-02-22T05:40:45.460Z,53.13
2023-02-22T05:43:11.928Z,47.77
2023-02-22T05:45:38.327Z,43.53
2023-02-22T05:48:04.955Z,46.17
2023-02-22T05:50:33.229Z,45.90
2023-02-22T05:52:59.940Z,43.97
2023-02-22T05:55:26.510Z,39.03
2023-02-22T05:57:53.174Z,41.13
2023-02-22T06:00:25.673Z,42.97
2023-02-22T06:02:59.547Z,45.17
2023-02-22T06:05:26.545Z,46.00
2023-02-22T06:07:53.797Z,42.53
2023-02-22T06:10:20.379Z,38.03
2023-02-22T06:12:48.014Z,33.73
2023-02-22T06:15:18.824Z,38.90
2023-02-22T06:17:45.445Z,36.20
2023-02-22T06:20:14.143Z,36.30
2023-02-22T06:22:44.690Z,31.97
2023-02-22T06:25:14.505Z,32.87
2023-02-22T06:27:40.969Z,36.23
2023-02-22T06:30:08.204Z,37.80
2023-02-22T06:32:34.608Z,46.83
2023-02-22T06:35:01.009Z,36.60
2023-02-22T06:37:27.384Z,41.67
2023-02-22T06:39:53.782Z,43.33
2023-02-22T06:42:20.374Z,38.43
2023-02-22T06:44:46.948Z,42.33
2023-02-22T06:47:13.602Z,39.00
2023-02-22T06:49:40.030Z,44.53
2023-02-22T06:52:07.404Z,46.53
2023-02-22T06:54:33.880Z,48.83
2023-02-22T06:57:00.325Z,51.50
2023-02-22T06:59:27.992Z,50.93
2023-02-22T07:01:54.559Z,49.33
2023-02-22T07:04:21.566Z,48.27
2023-02-22T07:06:52.117Z,47.27
2023-02-22T07:09:18.911Z,46.53
2023-02-22T07:11:45.408Z,44.77
2023-02-22T07:14:11.786Z,48.57
2023-02-22T07:16:38.290Z,45.63
2023-02-22T07:19:04.682Z,49.57
2023-02-22T07:21:31.099Z,50.93
2023-02-22T07:23:59.002Z,47.13
2023-02-22T07:26:26.211Z,43.47
2023-02-22T07:28:52.654Z,40.33
2023-02-22T07:31:19.188Z,42.07
2023-02-22T07:33:49.321Z,45.77
2023-02-22T07:36:17.935Z,47.53
2023-02-22T07:38:45.574Z,38.03
2023-02-22T07:41:12.790Z,43.13
2023-02-22T07:43:39.293Z,43.10
2023-02-22T07:46:05.837Z,39.00
2023-02-22T07:48:32.466Z,41.10
2023-02-22T07:50:59.278Z,37.40
2023-02-22T07:53:30.184Z,32.90
2023-02-22T07:56:01.344Z,36.33
2023-02-22T07:58:29.694Z,36.80
2023-02-22T08:00:56.260Z,33.63
2023-02-22T08:03:25.189Z,34.30
2023-02-22T08:05:54.185Z,37.17
2023-02-22T08:08:20.831Z,41.67
2023-02-22T08:10:47.846Z,35.87
2023-02-22T08:13:14.585Z,38.23
2023-02-22T08:15:43.988Z,39.13
2023-02-22T08:18:12.594Z,34.70
2023-02-22T08:20:41.429Z,31.70
2023-02-22T08:23:09.168Z,37.97
2023-02-22T08:25:36.202Z,38.27
2023-02-22T08:28:09.288Z,37.67
2023-02-22T08:30:38.985Z,42.03
2023-02-22T08:33:06.761Z,29.07
2023-02-22T08:35:33.784Z,33.10
2023-02-22T08:38:03.040Z,32.17
2023-02-22T08:40:31.678Z,33.00
2023-02-22T08:42:58.488Z,29.50
2023-02-22T08:45:25.311Z,31.53
2023-02-22T08:47:52.006Z,32.87
2023-02-22T08:50:24.349Z,33.53
2023-02-22T08:52:52.225Z,30.80
2023-02-22T08:55:22.918Z,37.23
2023-02-22T08:57:50.579Z,32.60
2023-02-22T09:00:18.672Z,32.13
2023-02-22T09:02:45.206Z,31.80
2023-02-22T09:05:11.935Z,34.53
2023-02-22T09:07:41.933Z,30.27
2023-02-22T09:10:11.513Z,30.20
2023-02-22T09:12:37.929Z,41.13
2023-02-22T09:15:04.502Z,41.37
2023-02-22T09:17:31.275Z,32.43
2023-02-22T09:19:57.863Z,34.73
2023-02-22T09:22:24.283Z,32.43
2023-02-22T09:24:52.365Z,33.37
2023-02-22T09:27:20.126Z,31.50
2023-02-22T09:29:48.752Z,42.77
2023-02-22T09:32:18.101Z,28.97
2023-02-22T09:34:45.841Z,30.37
2023-02-22T09:37:13.502Z,29.67
2023-02-22T09:39:39.973Z,33.70
2023-02-22T09:42:12.543Z,31.43
2023-02-22T09:44:57.616Z,29.20
2023-02-22T09:47:33.605Z,27.23
2023-02-22T09:50:16.307Z,26.83
2023-02-22T09:52:59.494Z,30.67
2023-02-22T09:55:35.185Z,36.20
2023-02-22T09:58:06.640Z,33.73
2023-02-22T10:00:36.604Z,34.87
2023-02-22T10:03:22.911Z,34.00
2023-02-22T10:05:57.148Z,31.40
2023-02-22T10:08:31.167Z,30.60
2023-02-22T10:11:21.904Z,34.10
2023-02-22T10:13:58.343Z,26.40
2023-02-22T10:16:34.796Z,26.63
2023-02-22T10:19:13.547Z,26.47
2023-02-22T10:22:14.583Z,25.53
2023-02-22T10:24:47.204Z,29.43
2023-02-22T10:27:22.243Z,30.80
2023-02-22T10:29:52.577Z,32.50
2023-02-22T10:32:26.707Z,27.67
2023-02-22T10:34:54.629Z,29.47
2023-02-22T10:37:29.881Z,28.67
2023-02-22T10:40:22.951Z,29.77
2023-02-22T10:42:50.115Z,28.63
2023-02-22T10:45:30.062Z,25.17
2023-02-22T10:47:59.089Z,25.40
2023-02-22T10:50:30.790Z,27.90
2023-02-22T10:52:57.832Z,25.30
2023-02-22T10:55:25.920Z,26.07
2023-02-22T10:58:00.871Z,29.27
2023-02-22T11:00:39.773Z,29.27
2023-02-22T11:03:18.635Z,32.37
2023-02-22T11:05:45.579Z,25.17
2023-02-22T11:08:21.184Z,29.77
2023-02-22T11:10:48.888Z,29.47
2023-02-22T11:13:26.207Z,26.37
2023-02-22T11:15:59.765Z,30.80
2023-02-22T11:18:36.033Z,27.03
2023-02-22T11:21:05.816Z,26.47
2023-02-22T11:23:32.993Z,27.67
2023-02-22T11:26:07.367Z,30.13
2023-02-22T11:28:34.247Z,29.20
2023-02-22T11:31:17.416Z,24.50
2023-02-22T11:34:27.402Z,26.17
2023-02-22T11:36:54.045Z,24.80
2023-02-22T11:39:22.086Z,26.33
2023-02-22T11:41:50.061Z,25.73
2023-02-22T11:44:29.771Z,29.57
2023-02-22T11:47:01.325Z,34.67
2023-02-22T11:49:38.274Z,30.60
2023-02-22T11:52:19.340Z,25.43
2023-02-22T11:55:32.678Z,28.00
2023-02-22T11:58:27.542Z,27.03
2023-02-22T12:01:12.060Z,25.83
2023-02-22T12:04:15.720Z,25.70
2023-02-22T12:07:06.414Z,23.30
2023-02-22T12:09:51.510Z,22.10
2023-02-22T12:12:27.919Z,25.10
2023-02-22T12:15:00.870Z,28.57
2023-02-22T12:17:59.748Z,28.50
2023-02-22T12:20:47.619Z,24.43
2023-02-22T12:23:44.721Z,26.67
2023-02-22T12:26:19.975Z,23.40
2023-02-22T12:28:59.528Z,28.80
2023-02-22T12:31:51.036Z,24.77
2023-02-22T12:34:41.500Z,36.93
2023-02-22T12:37:47.872Z,31.77
2023-02-22T12:40:35.812Z,30.93
2023-02-22T12:43:23.343Z,26.70
2023-02-22T12:46:13.423Z,26.03
2023-02-22T12:48:49.452Z,25.73
2023-02-22T12:51:38.558Z,23.53
2023-02-22T12:54:16.121Z,25.10
2023-02-22T12:56:55.097Z,26.70
2023-02-22T12:59:30.563Z,30.70
2023-02-22T13:02:01.574Z,23.07
2023-02-22T13:04:31.748Z,26.90
2023-02-22T13:07:35.685Z,26.73
2023-02-22T13:10:20.548Z,30.53
2023-02-22T13:13:04.980Z,26.50
2023-02-22T13:16:10.290Z,27.40
2023-02-22T13:18:49.962Z,25.93
2023-02-22T13:21:19.074Z,27.90
2023-02-22T13:23:51.683Z,27.60
2023-02-22T13:26:34.808Z,34.23
2023-02-22T13:29:14.291Z,26.20
2023-02-22T13:31:53.111Z,29.10
2023-02-22T13:34:57.917Z,28.23
2023-02-22T13:37:41.651Z,26.47
2023-02-22T13:40:36.580Z,28.63
2023-02-22T13:43:18.988Z,27.27
2023-02-22T13:46:23.587Z,26.83
2023-02-22T13:48:56.033Z,26.87
2023-02-22T13:51:38.943Z,33.40
2023-02-22T13:54:34.308Z,26.57
2023-02-22T13:57:03.005Z,24.10
2023-02-22T13:59:37.177Z,28.47
2023-02-22T14:02:05.529Z,25.63
2023-02-22T14:04:37.130Z,30.67
2023-02-22T14:07:18.807Z,26.23
2023-02-22T14:09:50.860Z,27.27
2023-02-22T14:12:29.464Z,23.43
2023-02-22T14:15:27.712Z,28.13
2023-02-22T14:18:05.625Z,25.33
2023-02-22T14:20:35.885Z,22.30
2023-02-22T14:23:24.066Z,24.67
2023-02-22T14:25:50.969Z,26.03
2023-02-22T14:28:53.004Z,20.67
2023-02-22T14:31:34.790Z,27.27
2023-02-22T14:34:05.723Z,26.07
2023-02-22T14:36:34.256Z,23.93
2023-02-22T14:39:07.117Z,27.40
2023-02-22T14:41:34.343Z,26.43
2023-02-22T14:44:02.571Z,25.70
2023-02-22T14:46:31.833Z,23.77
2023-02-22T14:49:01.109Z,27.27
2023-02-22T14:51:30.948Z,25.93
2023-02-22T14:54:13.241Z,25.67
2023-02-22T14:56:44.273Z,23.67
2023-02-22T14:59:17.915Z,22.90
2023-02-22T15:02:01.545Z,24.37
2023-02-22T15:04:31.007Z,26.83
2023-02-22T15:06:59.121Z,27.17
2023-02-22T15:09:30.612Z,24.87
2023-02-22T15:12:04.294Z,23.23
2023-02-22T15:14:38.926Z,23.87
2023-02-22T15:17:16.701Z,26.57
2023-02-22T15:19:43.199Z,29.37
2023-02-22T15:22:22.202Z,26.83
2023-02-22T15:24:59.278Z,26.97
2023-02-22T15:27:26.377Z,26.27
2023-02-22T15:29:58.556Z,28.10
2023-02-22T15:32:49.886Z,25.83
2023-02-22T15:35:26.918Z,24.70
2023-02-22T15:38:06.211Z,26.50
2023-02-22T15:40:33.510Z,27.97
2023-02-22T15:43:08.491Z,25.93
2023-02-22T15:45:35.498Z,28.23
2023-02-22T15:48:02.050Z,29.50
2023-02-22T15:50:33.873Z,28.37
2023-02-22T15:53:26.468Z,25.63
2023-02-22T15:55:58.856Z,27.33
2023-02-22T15:58:29.110Z,27.60
2023-02-22T16:01:15.689Z,27.37
2023-02-22T16:03:47.159Z,28.13
2023-02-22T16:06:35.973Z,26.27
2023-02-22T16:09:25.693Z,30.53
2023-02-22T16:12:09.581Z,29.20
2023-02-22T16:14:35.916Z,25.63
2023-02-22T16:17:35.655Z,26.27
2023-02-22T16:20:22.163Z,27.60
2023-02-22T16:22:50.396Z,29.20
2023-02-22T16:25:21.497Z,32.63
2023-02-22T16:28:06.124Z,30.80
2023-02-22T16:30:39.681Z,29.27
2023-02-22T16:33:16.506Z,24.57
2023-02-22T16:35:52.024Z,24.30
2023-02-22T16:38:19.059Z,30.60
2023-02-22T16:40:50.513Z,26.87
2023-02-22T16:43:22.892Z,28.27
2023-02-22T16:45:49.490Z,26.70
2023-02-22T16:48:19.441Z,25.57
2023-02-22T16:50:46.192Z,28.37
2023-02-22T16:53:12.920Z,28.77
2023-02-22T16:55:44.675Z,27.37
2023-02-22T16:58:13.133Z,28.93
2023-02-22T17:00:42.192Z,35.37
2023-02-22T17:03:15.116Z,31.27
2023-02-22T17:05:41.832Z,26.30
2023-02-22T17:08:08.246Z,27.33
2023-02-22T17:10:34.799Z,27.77
2023-02-22T17:13:12.722Z,27.60
2023-02-22T17:15:46.723Z,30.43
2023-02-22T17:18:16.165Z,27.10
2023-02-22T17:20:45.718Z,31.10
2023-02-22T17:23:12.690Z,28.67
2023-02-22T17:25:40.681Z,29.07
2023-02-22T17:28:08.353Z,33.97
2023-02-22T17:30:36.015Z,30.03
2023-02-22T17:33:04.751Z,29.53
2023-02-22T17:35:36.311Z,34.87
2023-02-22T17:38:06.686Z,29.50
2023-02-22T17:40:34.801Z,32.57
2023-02-22T17:43:02.904Z,29.17
2023-02-22T17:45:29.834Z,30.00
2023-02-22T17:47:59.254Z,35.10
2023-02-22T17:50:26.573Z,32.47
2023-02-22T17:52:53.199Z,31.63
2023-02-22T17:55:20.736Z,37.33
2023-02-22T17:57:48.780Z,29.60
2023-02-22T18:00:23.394Z,27.27
2023-02-22T18:02:51.202Z,26.97
2023-02-22T18:05:18.353Z,27.17
2023-02-22T18:07:45.669Z,32.27
2023-02-22T18:10:12.712Z,29.20
2023-02-22T18:12:39.919Z,30.73
2023-02-22T18:15:08.700Z,34.93
2023-02-22T18:17:36.963Z,32.17
2023-02-22T18:20:11.772Z,37.00
2023-02-22T18:22:42.052Z,31.77
2023-02-22T18:25:16.380Z,31.73
2023-02-22T18:27:45.803Z,30.00
2023-02-22T18:30:12.810Z,35.00
2023-02-22T18:32:39.742Z,30.50
2023-02-22T18:35:06.762Z,36.97
2023-02-22T18:37:34.190Z,26.60
2023-02-22T18:40:00.762Z,30.53
2023-02-22T18:42:28.347Z,29.20
2023-02-22T18:45:00.553Z,34.00
2023-02-22T18:47:27.547Z,31.23
2023-02-22T18:49:54.497Z,29.77
2023-02-22T18:52:21.385Z,31.87
2023-02-22T18:54:49.038Z,31.90
2023-02-22T18:57:16.019Z,32.80
2023-02-22T18:59:43.254Z,37.27
2023-02-22T19:02:14.372Z,28.67
2023-02-22T19:04:41.115Z,33.53
2023-02-22T19:07:07.527Z,31.70
2023-02-22T19:09:36.292Z,32.13
2023-02-22T19:12:03.125Z,46.43
2023-02-22T19:14:29.560Z,36.30
2023-02-22T19:16:59.228Z,31.87
2023-02-22T19:19:26.726Z,32.57
2023-02-22T19:21:56.256Z,33.57
2023-02-22T19:24:22.971Z,27.23
2023-02-22T19:26:53.919Z,30.63
2023-02-22T19:29:23.566Z,29.03
2023-02-22T19:31:51.967Z,30.87
2023-02-22T19:34:21.948Z,26.17
2023-02-22T19:36:48.615Z,26.53
2023-02-22T19:39:19.829Z,27.67
2023-02-22T19:41:46.956Z,29.07
2023-02-22T19:44:13.504Z,27.23
2023-02-22T19:46:40.555Z,25.83
2023-02-22T19:49:07.582Z,24.57
2023-02-22T19:51:34.378Z,26.87
2023-02-22T19:54:03.206Z,24.67
2023-02-22T19:56:31.094Z,25.13
2023-02-22T19:59:06.506Z,23.87
2023-02-22T20:01:33.431Z,26.20
2023-02-22T20:04:05.313Z,25.23
2023-02-22T20:06:34.907Z,25.23
2023-02-22T20:09:02.626Z,28.10
2023-02-22T20:11:29.109Z,24.87
2023-02-22T20:13:55.651Z,23.00
2023-02-22T20:16:22.742Z,24.67
2023-02-22T20:18:50.144Z,26.20
2023-02-22T20:21:24.789Z,29.13
2023-02-22T20:23:51.490Z,25.33
2023-02-22T20:26:20.788Z,23.27
2023-02-22T20:28:47.301Z,26.27
2023-02-22T20:31:14.466Z,28.70
2023-02-22T20:33:48.580Z,27.73
2023-02-22T20:36:17.042Z,27.40
2023-02-22T20:38:43.748Z,25.97
2023-02-22T20:41:14.913Z,25.37
2023-02-22T20:43:41.411Z,27.23
2023-02-22T20:46:08.247Z,24.00
2023-02-22T20:48:34.914Z,27.80
2023-02-22T20:51:12.774Z,26.57
2023-02-22T20:53:41.705Z,26.10
2023-02-22T20:56:16.152Z,22.80
2023-02-22T20:58:43.086Z,28.13
2023-02-22T21:01:13.981Z,26.93
2023-02-22T21:03:42.125Z,28.70
2023-02-22T21:06:11.754Z,27.73
2023-02-22T21:08:38.220Z,25.43
2023-02-22T21:11:10.771Z,25.90
2023-02-22T21:13:37.205Z,26.13
2023-02-22T21:16:03.845Z,26.63
2023-02-22T21:18:30.257Z,30.40
2023-02-22T21:20:56.936Z,26.90
2023-02-22T21:23:23.424Z,24.47
2023-02-22T21:25:51.727Z,24.03
2023-02-22T21:28:18.324Z,24.10
2023-02-22T21:30:45.869Z,28.23
2023-02-22T21:33:12.390Z,31.90
2023-02-22T21:35:43.069Z,26.87
2023-02-22T21:38:14.304Z,29.50
2023-02-22T21:40:41.854Z,27.47
2023-02-22T21:43:11.099Z,25.20
2023-02-22T21:45:38.367Z,28.63
2023-02-22T21:48:05.500Z,28.13
2023-02-22T21:50:32.595Z,29.53
2023-02-22T21:52:59.171Z,33.17
2023-02-22T21:55:25.736Z,28.67
2023-02-22T21:57:52.456Z,29.63
2023-02-22T22:00:29.130Z,32.47
2023-02-22T22:03:08.359Z,28.60
2023-02-22T22:05:38.683Z,28.63
2023-02-22T22:08:07.472Z,27.10
2023-02-22T22:10:34.429Z,31.13
2023-02-22T22:13:00.944Z,31.80
2023-02-22T22:15:30.242Z,31.47
2023-02-22T22:18:02.658Z,32.07
2023-02-22T22:20:29.110Z,26.13
2023-02-22T22:22:55.540Z,28.93
2023-02-22T22:25:24.317Z,30.20
2023-02-22T22:27:51.238Z,27.30
2023-02-22T22:30:17.966Z,31.93
2023-02-22T22:32:45.324Z,31.63
2023-02-22T22:35:14.552Z,33.80
2023-02-22T22:37:42.315Z,28.80
2023-02-22T22:40:15.645Z,27.27
2023-02-22T22:42:42.658Z,35.47
2023-02-22T22:45:13.790Z,31.57
2023-02-22T22:47:46.698Z,31.70
2023-02-22T22:50:15.273Z,31.93
2023-02-22T22:52:42.166Z,31.13
2023-02-22T22:55:11.981Z,33.43
2023-02-22T22:57:39.709Z,27.60
2023-02-22T23:00:44.988Z,27.17
2023-02-22T23:03:16.456Z,25.00
2023-02-22T23:05:43.325Z,29.13
2023-02-22T23:08:10.929Z,32.10
2023-02-22T23:10:39.281Z,30.73
2023-02-22T23:13:10.082Z,28.90
2023-02-22T23:15:42.598Z,28.60
2023-02-22T23:18:09.493Z,33.77
2023-02-22T23:20:38.924Z,31.53
2023-02-22T23:23:06.064Z,26.40
2023-02-22T23:25:33.341Z,28.50
2023-02-22T23:27:59.981Z,25.90
2023-02-22T23:30:26.978Z,33.63
2023-02-22T23:32:53.732Z,29.07
2023-02-22T23:35:20.136Z,28.07
2023-02-22T23:37:53.022Z,27.83
2023-02-22T23:40:19.576Z,31.23
2023-02-22T23:42:49.732Z,30.87
2023-02-22T23:45:22.661Z,31.83
2023-02-22T23:48:01.467Z,30.77
2023-02-22T23:50:30.224Z,30.63
2023-02-22T23:53:03.418Z,31.47
2023-02-22T23:55:31.853Z,31.33
2023-02-22T23:57:59.431Z,31.00
